Albatross — SMQU — position and weather

sailwx.info

Track history (hours):
 
Tides and Currents Weather Stations Pressure Air Temp Water Temp Dewpoint Dewpoint Depression Visibility Wind Speed Wind Dir Waves Ship Positions

Albatross

Last reported at 2017-Sep-28 17:27 UTC. Time now 2017-Dec-17 02:45 UTC.
Position N 37°06' W 008°40'.
Warning: this ship's position is months out of date.

Length 15 m.

Type: Pleasure craft. MMSI: 265708820.

Date/timePositionNaut miles runAvg speedWind from/ knotsBaromVisibWave heightAir tempDewpointWater temp
2017-Sep-28 17:27N 37°06' W 008°40'0 0.0
2017-Sep-28 17:00N 37°06' W 008°40'2 4.2
2017-Sep-28 16:30N 37°04' W 008°40'40 4.8
2017-Sep-28 08:05N 37°43' W 008°54'2 7.0
2017-Sep-28 07:50N 37°45' W 008°54'2 7.0
2017-Sep-28 07:30N 37°47' W 008°54'4 7.1
2017-Sep-28 07:00N 37°50' W 008°53'4 7.0
2017-Sep-28 06:30N 37°54' W 008°53'3 5.8
2017-Sep-28 05:58N 37°57' W 008°52'0 0.0
2017-Sep-27 14:39N 37°57' W 008°52'0 0.1
2017-Sep-27 14:30N 37°57' W 008°52'2 4.4
2017-Sep-27 14:01N 37°57' W 008°55'4 7.8
2017-Sep-27 13:30N 38°01' W 008°57'4 7.8
2017-Sep-27 13:00N 38°04' W 008°60'4 7.6
2017-Sep-27 12:30N 38°08' W 009°02'4 7.6
2017-Sep-27 12:00N 38°11' W 009°04'6 6.4
2017-Sep-27 11:02N 38°16' W 009°08'3 7.3
2017-Sep-27 10:35N 38°19' W 009°10'2 7.2
2017-Sep-27 10:21N 38°21' W 009°11'3 7.1
2017-Sep-27 09:58N 38°23' W 009°13'4 7.1
2017-Sep-27 09:27N 38°26' W 009°15'4 7.3
2017-Sep-27 08:55N 38°30' W 009°17'3 7.3
2017-Sep-27 08:27N 38°33' W 009°19'2 5.0
2017-Sep-27 07:59N 38°35' W 009°21'3 6.7
2017-Sep-27 07:30N 38°38' W 009°23'  
2017-Sep-21 13:04N 38°42' W 009°08'1 9.2
2017-Sep-21 12:59N 38°42' W 009°09'4 8.2
2017-Sep-21 12:29N 38°41' W 009°14'5 8.9
2017-Sep-21 11:58N 38°40' W 009°20'3 5.4
2017-Sep-21 11:30N 38°41' W 009°23'2 3.4
2017-Sep-21 11:00N 38°41' W 009°25'0 0.0
2017-Sep-21 10:29N 38°41' W 009°25'0 0.0
2017-Sep-21 09:59N 38°41' W 009°25'  
Track history (hours):
 
Tides and Currents Weather Stations Pressure Air Temp Water Temp Dewpoint Dewpoint Depression Visibility Wind Speed Wind Dir Waves Ship Positions

Albatross

Last reported at 2017-Sep-28 17:27 UTC. Time now 2017-Dec-17 02:45 UTC.
Position N 37°06' W 008°40'.
Warning: this ship's position is months out of date.

Length 15 m.

Type: Pleasure craft. MMSI: 265708820.

Date/timePositionNaut miles runAvg speedWind from/ knotsBaromVisibWave heightAir tempDewpointWater temp
2017-Sep-28 17:27N 37°06' W 008°40'0 0.0
2017-Sep-28 17:00N 37°06' W 008°40'2 4.2
2017-Sep-28 16:30N 37°04' W 008°40'40 4.8
2017-Sep-28 08:05N 37°43' W 008°54'2 7.0
2017-Sep-28 07:50N 37°45' W 008°54'2 7.0
2017-Sep-28 07:30N 37°47' W 008°54'4 7.1
2017-Sep-28 07:00N 37°50' W 008°53'4 7.0
2017-Sep-28 06:30N 37°54' W 008°53'3 5.8
2017-Sep-28 05:58N 37°57' W 008°52'0 0.0
2017-Sep-27 14:39N 37°57' W 008°52'0 0.1
2017-Sep-27 14:30N 37°57' W 008°52'2 4.4
2017-Sep-27 14:01N 37°57' W 008°55'4 7.8
2017-Sep-27 13:30N 38°01' W 008°57'4 7.8
2017-Sep-27 13:00N 38°04' W 008°60'4 7.6
2017-Sep-27 12:30N 38°08' W 009°02'4 7.6
2017-Sep-27 12:00N 38°11' W 009°04'6 6.4
2017-Sep-27 11:02N 38°16' W 009°08'3 7.3
2017-Sep-27 10:35N 38°19' W 009°10'2 7.2
2017-Sep-27 10:21N 38°21' W 009°11'3 7.1
2017-Sep-27 09:58N 38°23' W 009°13'4 7.1
2017-Sep-27 09:27N 38°26' W 009°15'4 7.3
2017-Sep-27 08:55N 38°30' W 009°17'3 7.3
2017-Sep-27 08:27N 38°33' W 009°19'2 5.0
2017-Sep-27 07:59N 38°35' W 009°21'3 6.7
2017-Sep-27 07:30N 38°38' W 009°23'  
2017-Sep-21 13:04N 38°42' W 009°08'1 9.2
2017-Sep-21 12:59N 38°42' W 009°09'4 8.2
2017-Sep-21 12:29N 38°41' W 009°14'5 8.9
2017-Sep-21 11:58N 38°40' W 009°20'3 5.4
2017-Sep-21 11:30N 38°41' W 009°23'2 3.4
2017-Sep-21 11:00N 38°41' W 009°25'0 0.0
2017-Sep-21 10:29N 38°41' W 009°25'0 0.0
2017-Sep-21 09:59N 38°41' W 009°25'  

Dump ship's entire track history